4A6

Scottsboro Municipal-Word Field Airport

Scottsboro, Alabama, USA
METAR K4A6 241915Z AUTO 17007KT 140V210 9SM -RA BKN026 BKN037 27/24 A3003 RMK AO2 LTG DSNT SE AND S
Observed Flight Rules
Sep-24 @ 19:15 UTC (20 minutes ago) Marginal Visual Flight Rules
Wind Visibility Clouds Conditions
170° at 7 knots 9 miles
  • Broken at 2,600' AGL
  • Broken at 3,700' AGL
  • Light Rain
Temperatures Readings
Current 27°C / 81°F
Dewpoint 24°C / 75°F
Humidity 84%
Altimeter 30.03" Hg
Pressure 1017 hPa
Elevation 198
METAR K4A6 241915Z AUTO 17007KT 140V210 9SM -RA BKN026 BKN037 27/24 A3003 RMK AO2 LTG DSNT SE AND S
Observed Flight Rules
Sep-24 @ 19:15 UTC
(20 minutes ago)
MVFR
Wind Visibility
170° at 7 knots 9 miles
Clouds
  • Broken at 2,600' AGL
  • Broken at 3,700' AGL
Conditions
  • Light Rain
Temperature Dewpoint
27°C / 81°F 24°C / 75°F
Humidity Altimeter Pressure
84% 30.03" Hg 1017 hPa